createdAt,value
2023-02-16T00:00:00.709Z,17.63
2023-02-16T00:03:02.867Z,19.17
2023-02-16T00:06:04.890Z,18.83
2023-02-16T00:09:06.937Z,18.73
2023-02-16T00:12:37.685Z,19.93
2023-02-16T00:15:40.396Z,20.10
2023-02-16T00:18:42.383Z,19.67
2023-02-16T00:21:44.643Z,19.73
2023-02-16T00:24:46.576Z,19.07
2023-02-16T00:27:48.929Z,20.60
2023-02-16T00:30:52.057Z,20.77
2023-02-16T00:33:54.646Z,17.70
2023-02-16T00:36:59.381Z,17.90
2023-02-16T00:40:01.272Z,20.93
2023-02-16T00:43:04.893Z,20.23
2023-02-16T00:46:06.915Z,22.23
2023-02-16T00:49:16.432Z,20.53
2023-02-16T00:52:42.899Z,20.50
2023-02-16T00:55:45.445Z,20.97
2023-02-16T00:58:51.873Z,20.43
2023-02-16T01:01:53.960Z,20.07
2023-02-16T01:04:56.589Z,20.63
2023-02-16T01:08:17.837Z,20.03
2023-02-16T01:11:20.132Z,22.00
2023-02-16T01:14:22.159Z,19.83
2023-02-16T01:17:24.942Z,21.03
2023-02-16T01:20:28.917Z,19.87
2023-02-16T01:23:30.863Z,19.77
2023-02-16T01:26:38.510Z,20.97
2023-02-16T01:29:40.527Z,20.77
2023-02-16T01:32:47.585Z,21.23
2023-02-16T01:35:51.036Z,22.13
2023-02-16T01:38:53.001Z,21.50
2023-02-16T01:42:04.009Z,19.23
2023-02-16T01:45:24.187Z,21.00
2023-02-16T01:48:31.341Z,23.17
2023-02-16T01:51:46.659Z,19.67
2023-02-16T01:54:58.396Z,21.80
2023-02-16T01:58:42.933Z,22.00
2023-02-16T02:01:57.195Z,23.37
2023-02-16T02:05:35.374Z,26.03
2023-02-16T02:09:20.710Z,23.77
2023-02-16T02:12:32.284Z,20.33
2023-02-16T02:15:35.644Z,22.37
2023-02-16T02:18:39.188Z,21.27
2023-02-16T02:22:24.628Z,22.10
2023-02-16T02:26:06.145Z,21.43
2023-02-16T02:29:18.304Z,23.17
2023-02-16T02:33:01.613Z,22.90
2023-02-16T02:36:33.980Z,24.00
2023-02-16T02:39:52.980Z,23.20
2023-02-16T02:43:39.201Z,23.60
2023-02-16T02:46:41.632Z,24.97
2023-02-16T02:49:54.806Z,25.17
2023-02-16T02:53:08.770Z,22.93
2023-02-16T02:56:32.843Z,23.13
2023-02-16T02:59:55.516Z,22.60
2023-02-16T03:03:32.623Z,23.47
2023-02-16T03:06:38.068Z,23.83
2023-02-16T03:09:40.066Z,23.90
2023-02-16T03:12:48.033Z,22.53
2023-02-16T03:15:56.119Z,21.27
2023-02-16T03:19:17.162Z,24.00
2023-02-16T03:22:37.812Z,23.03
2023-02-16T03:25:58.984Z,25.20
2023-02-16T03:29:21.482Z,21.87
2023-02-16T03:32:23.561Z,23.57
2023-02-16T03:35:26.326Z,22.10
2023-02-16T03:38:28.575Z,22.13
2023-02-16T03:41:38.478Z,21.30
2023-02-16T03:44:40.397Z,22.53
2023-02-16T03:47:42.326Z,20.63
2023-02-16T03:50:44.275Z,20.70
2023-02-16T03:53:46.217Z,20.13
2023-02-16T03:56:48.186Z,20.60
2023-02-16T03:59:51.031Z,20.60
2023-02-16T04:02:53.159Z,21.80
2023-02-16T04:05:56.476Z,20.60
2023-02-16T04:08:58.504Z,20.53
2023-02-16T04:12:19.203Z,22.33
2023-02-16T04:15:24.840Z,20.37
2023-02-16T04:18:26.762Z,19.30
2023-02-16T04:21:28.725Z,20.47
2023-02-16T04:24:30.712Z,20.53
2023-02-16T04:27:33.153Z,19.50
2023-02-16T04:30:35.277Z,21.43
2023-02-16T04:33:37.270Z,21.30
2023-02-16T04:36:39.327Z,21.10
2023-02-16T04:39:41.628Z,22.20
2023-02-16T04:42:45.023Z,20.70
2023-02-16T04:45:47.061Z,20.37
2023-02-16T04:48:49.032Z,20.33
2023-02-16T04:51:51.131Z,18.60
2023-02-16T04:54:53.091Z,16.03
2023-02-16T04:57:55.041Z,18.03
2023-02-16T05:00:57.030Z,22.00
2023-02-16T05:03:58.954Z,20.80
2023-02-16T05:07:01.017Z,19.97
2023-02-16T05:10:03.064Z,20.33
2023-02-16T05:13:23.610Z,20.87
2023-02-16T05:16:25.703Z,18.87
2023-02-16T05:19:27.633Z,20.83
2023-02-16T05:22:32.508Z,19.40
2023-02-16T05:25:34.417Z,19.87
2023-02-16T05:28:36.435Z,19.43
2023-02-16T05:31:38.618Z,17.47
2023-02-16T05:34:40.827Z,17.80
2023-02-16T05:37:42.898Z,16.27
2023-02-16T05:40:44.869Z,19.23
2023-02-16T05:43:50.364Z,18.20
2023-02-16T05:46:52.364Z,16.73
2023-02-16T05:49:54.298Z,18.07
2023-02-16T05:52:56.430Z,17.33
2023-02-16T05:55:58.338Z,16.83
2023-02-16T05:59:00.831Z,16.93
2023-02-16T06:02:02.824Z,18.77
2023-02-16T06:05:04.973Z,17.37
2023-02-16T06:08:06.953Z,17.60
2023-02-16T06:11:28.930Z,17.57
2023-02-16T06:14:30.910Z,17.90
2023-02-16T06:17:32.906Z,17.30
2023-02-16T06:20:34.811Z,17.53
2023-02-16T06:23:36.734Z,16.43
2023-02-16T06:26:38.924Z,16.10
2023-02-16T06:29:40.844Z,17.60
2023-02-16T06:32:42.772Z,17.80
2023-02-16T06:35:44.718Z,17.70
2023-02-16T06:38:46.858Z,17.10
2023-02-16T06:41:48.850Z,16.37
2023-02-16T06:44:50.800Z,18.17
2023-02-16T06:47:52.755Z,16.23
2023-02-16T06:50:54.885Z,17.17
2023-02-16T06:53:57.515Z,18.20
2023-02-16T06:56:59.524Z,19.07
2023-02-16T07:00:01.537Z,17.60
2023-02-16T07:03:03.634Z,18.07
2023-02-16T07:06:06.162Z,16.70
2023-02-16T07:09:09.183Z,16.47
2023-02-16T07:12:12.597Z,18.37
2023-02-16T07:15:14.637Z,17.77
2023-02-16T07:18:16.739Z,18.63
2023-02-16T07:21:18.952Z,16.50
2023-02-16T07:24:21.125Z,19.03
2023-02-16T07:27:24.040Z,16.63
2023-02-16T07:30:25.980Z,18.67
2023-02-16T07:33:27.999Z,17.20
2023-02-16T07:36:30.032Z,18.57
2023-02-16T07:39:32.210Z,20.23
2023-02-16T07:42:34.183Z,19.70
2023-02-16T07:45:38.353Z,18.77
2023-02-16T07:48:40.343Z,16.80
2023-02-16T07:51:42.448Z,18.07
2023-02-16T07:54:44.464Z,18.97
2023-02-16T07:57:49.593Z,18.87
2023-02-16T08:00:51.585Z,17.63
2023-02-16T08:03:54.073Z,18.40
2023-02-16T08:06:56.012Z,18.23
2023-02-16T08:09:57.964Z,19.73
2023-02-16T08:13:00.114Z,18.27
2023-02-16T08:16:02.297Z,17.63
2023-02-16T08:19:04.872Z,17.03
2023-02-16T08:22:08.162Z,17.43
2023-02-16T08:25:10.176Z,17.73
2023-02-16T08:28:14.935Z,17.30
2023-02-16T08:31:23.519Z,16.87
2023-02-16T08:34:26.587Z,16.47
2023-02-16T08:37:28.901Z,18.10
2023-02-16T08:40:30.941Z,16.37
2023-02-16T08:43:34.106Z,17.53
2023-02-16T08:46:40.565Z,17.00
2023-02-16T08:49:44.376Z,16.93
2023-02-16T08:52:47.235Z,17.43
2023-02-16T08:55:56.538Z,16.30
2023-02-16T08:58:59.316Z,17.33
2023-02-16T09:02:01.523Z,16.07
2023-02-16T09:05:03.593Z,18.30
2023-02-16T09:08:05.602Z,18.63
2023-02-16T09:11:11.777Z,18.87
2023-02-16T09:14:14.282Z,19.17
2023-02-16T09:17:16.736Z,19.80
2023-02-16T09:20:20.647Z,20.10
2023-02-16T09:23:22.690Z,21.13
2023-02-16T09:26:25.780Z,20.03
2023-02-16T09:29:27.741Z,17.57
2023-02-16T09:32:30.834Z,21.93
2023-02-16T09:35:32.899Z,21.83
2023-02-16T09:38:35.361Z,21.73
2023-02-16T09:41:55.439Z,19.63
2023-02-16T09:45:25.692Z,21.07
2023-02-16T09:48:43.051Z,20.60
2023-02-16T09:51:45.099Z,20.97
2023-02-16T09:54:54.637Z,22.63
2023-02-16T09:58:21.687Z,19.67
2023-02-16T10:01:40.142Z,21.37
2023-02-16T10:04:53.505Z,19.70
2023-02-16T10:08:00.267Z,20.50
2023-02-16T10:11:33.327Z,22.83
2023-02-16T10:14:41.397Z,22.37
2023-02-16T10:17:50.248Z,23.50
2023-02-16T10:20:56.842Z,24.80
2023-02-16T10:24:03.287Z,24.07
2023-02-16T10:27:11.916Z,25.17
2023-02-16T10:30:23.375Z,25.13
2023-02-16T10:33:28.417Z,26.23
2023-02-16T10:36:42.202Z,25.30
2023-02-16T10:40:30.440Z,27.63
2023-02-16T10:44:01.471Z,26.47
2023-02-16T10:47:06.463Z,26.60
2023-02-16T10:50:22.189Z,27.53
2023-02-16T10:53:46.718Z,29.73
2023-02-16T10:56:59.794Z,29.30
2023-02-16T11:00:13.600Z,27.67
2023-02-16T11:03:16.121Z,28.10
2023-02-16T11:06:21.999Z,25.60
2023-02-16T11:09:28.621Z,28.07
2023-02-16T11:12:34.372Z,28.90
2023-02-16T11:15:39.510Z,26.43
2023-02-16T11:18:45.368Z,25.93
2023-02-16T11:21:50.550Z,26.17
2023-02-16T11:24:52.522Z,26.60
2023-02-16T11:27:58.176Z,23.87
2023-02-16T11:31:05.499Z,26.63
2023-02-16T11:34:31.699Z,24.37
2023-02-16T11:37:34.358Z,25.17
2023-02-16T11:40:36.357Z,23.77
2023-02-16T11:43:42.472Z,23.30
2023-02-16T11:46:44.470Z,23.50
2023-02-16T11:49:46.488Z,23.07
2023-02-16T11:52:51.107Z,22.60
2023-02-16T11:56:13.090Z,21.43
2023-02-16T11:59:22.058Z,19.60
2023-02-16T12:02:26.958Z,22.33
2023-02-16T12:05:54.796Z,21.00
2023-02-16T12:09:15.129Z,20.47
2023-02-16T12:12:32.273Z,19.33
2023-02-16T12:15:42.979Z,20.93
2023-02-16T12:18:53.842Z,20.57
2023-02-16T12:22:27.839Z,20.83
2023-02-16T12:26:03.554Z,20.70
2023-02-16T12:29:45.193Z,19.97
2023-02-16T12:32:48.024Z,21.87
2023-02-16T12:36:12.759Z,20.70
2023-02-16T12:39:23.418Z,22.33
2023-02-16T12:42:44.218Z,22.50
2023-02-16T12:45:47.410Z,23.67
2023-02-16T12:48:57.160Z,23.40
2023-02-16T12:52:08.639Z,23.80
2023-02-16T12:55:31.187Z,24.33
2023-02-16T12:58:46.674Z,23.07
2023-02-16T13:01:52.503Z,23.10
2023-02-16T13:05:10.836Z,23.90
2023-02-16T13:08:39.371Z,24.73
2023-02-16T13:11:49.961Z,23.40
2023-02-16T13:15:20.796Z,24.07
2023-02-16T13:18:28.576Z,22.50
2023-02-16T13:21:54.578Z,23.03
2023-02-16T13:25:21.775Z,23.40
2023-02-16T13:28:38.244Z,23.87
2023-02-16T13:32:09.234Z,23.03
2023-02-16T13:35:26.040Z,22.00
2023-02-16T13:38:52.884Z,19.73
2023-02-16T13:42:06.732Z,19.23
2023-02-16T13:45:17.400Z,22.70
2023-02-16T13:48:22.280Z,23.00
2023-02-16T13:51:27.539Z,13.93
2023-02-16T13:54:35.902Z,19.83
2023-02-16T13:57:50.705Z,19.90
2023-02-16T14:00:53.417Z,22.13
2023-02-16T14:03:55.399Z,19.30
2023-02-16T14:07:10.040Z,16.37
2023-02-16T14:10:14.494Z,8.70
2023-02-16T14:13:17.226Z,8.33
2023-02-16T14:16:20.978Z,8.47
2023-02-16T14:19:26.474Z,7.73
2023-02-16T14:22:34.561Z,8.10
2023-02-16T14:25:38.681Z,6.83
2023-02-16T14:28:55.548Z,8.00
2023-02-16T14:32:10.379Z,8.60
2023-02-16T14:35:40.007Z,8.33
2023-02-16T14:38:41.906Z,7.57
2023-02-16T14:41:44.058Z,7.20
2023-02-16T14:45:06.265Z,7.60
2023-02-16T14:48:30.608Z,8.07
2023-02-16T14:51:44.360Z,8.33
2023-02-16T14:55:18.424Z,7.80
2023-02-16T14:58:31.986Z,8.63
2023-02-16T15:01:41.893Z,8.50
2023-02-16T15:04:43.920Z,8.77
2023-02-16T15:07:50.687Z,7.60
2023-02-16T15:10:58.533Z,7.00
2023-02-16T15:14:08.362Z,7.73
2023-02-16T15:17:17.431Z,8.07
2023-02-16T15:20:33.448Z,7.60
2023-02-16T15:23:36.512Z,6.37
2023-02-16T15:26:39.050Z,7.43
2023-02-16T15:29:41.192Z,6.63
2023-02-16T15:32:52.596Z,6.93
2023-02-16T15:36:00.493Z,6.30
2023-02-16T15:39:28.281Z,7.00
2023-02-16T15:42:34.352Z,8.00
2023-02-16T15:45:42.188Z,7.07
2023-02-16T15:48:44.501Z,7.53
2023-02-16T15:51:46.771Z,8.60
2023-02-16T15:54:50.377Z,8.13
2023-02-16T15:57:53.981Z,8.30
2023-02-16T16:00:56.404Z,8.60
2023-02-16T16:04:01.368Z,7.27
2023-02-16T16:07:08.943Z,8.57
2023-02-16T16:10:22.975Z,8.20
2023-02-16T16:13:29.000Z,8.40
2023-02-16T16:16:31.273Z,8.30
2023-02-16T16:19:38.443Z,8.60
2023-02-16T16:22:44.615Z,7.63
2023-02-16T16:25:49.537Z,9.30
2023-02-16T16:28:53.392Z,7.30
2023-02-16T16:31:57.361Z,6.57
2023-02-16T16:35:00.265Z,7.27
2023-02-16T16:38:03.921Z,6.80
2023-02-16T16:41:07.738Z,6.87
2023-02-16T16:44:29.030Z,7.77
2023-02-16T16:47:43.231Z,9.33
2023-02-16T16:50:47.527Z,7.23
2023-02-16T16:53:55.803Z,6.13
2023-02-16T16:57:00.501Z,6.73
2023-02-16T17:00:04.293Z,6.83
2023-02-16T17:03:16.001Z,9.03
2023-02-16T17:06:20.601Z,8.07
2023-02-16T17:09:24.631Z,8.20
2023-02-16T17:12:28.889Z,7.30
2023-02-16T17:15:51.894Z,7.10
2023-02-16T17:18:54.996Z,6.60
2023-02-16T17:21:57.743Z,5.87
2023-02-16T17:25:00.543Z,7.37
2023-02-16T17:28:05.084Z,6.80
2023-02-16T17:31:09.733Z,7.17
2023-02-16T17:34:12.325Z,6.57
2023-02-16T17:37:15.006Z,6.70
2023-02-16T17:40:20.528Z,6.43
2023-02-16T17:43:25.602Z,7.23
2023-02-16T17:46:29.515Z,7.27
2023-02-16T17:49:35.753Z,7.40
2023-02-16T17:52:39.500Z,8.20
2023-02-16T17:55:42.268Z,7.37
2023-02-16T17:58:45.829Z,8.03
2023-02-16T18:01:48.715Z,7.23
2023-02-16T18:04:51.641Z,8.23
2023-02-16T18:08:00.179Z,8.00
2023-02-16T18:11:04.503Z,9.37
2023-02-16T18:14:07.449Z,8.13
2023-02-16T18:17:15.657Z,6.90
2023-02-16T18:20:25.014Z,8.30
2023-02-16T18:23:28.920Z,7.37
2023-02-16T18:26:36.510Z,8.57
2023-02-16T18:29:41.653Z,8.07
2023-02-16T18:32:57.228Z,8.13
2023-02-16T18:36:02.676Z,7.40
2023-02-16T18:39:07.865Z,8.33
2023-02-16T18:42:11.434Z,8.30
2023-02-16T18:45:17.163Z,7.93
2023-02-16T18:48:24.466Z,8.10
2023-02-16T18:51:30.074Z,7.50
2023-02-16T18:54:33.309Z,8.57
2023-02-16T18:57:37.415Z,8.03
2023-02-16T19:00:42.985Z,8.37
2023-02-16T19:03:46.585Z,7.73
2023-02-16T19:06:50.101Z,7.27
2023-02-16T19:09:53.583Z,7.13
2023-02-16T19:12:57.044Z,6.83
2023-02-16T19:16:00.540Z,7.30
2023-02-16T19:19:04.264Z,7.20
2023-02-16T19:22:08.265Z,6.63
2023-02-16T19:25:12.306Z,6.33
2023-02-16T19:28:15.682Z,6.70
2023-02-16T19:31:25.071Z,6.57
2023-02-16T19:34:28.269Z,6.40
2023-02-16T19:37:31.440Z,6.97
2023-02-16T19:40:35.003Z,5.80
2023-02-16T19:43:40.044Z,6.53
2023-02-16T19:46:44.678Z,6.20
2023-02-16T19:49:47.318Z,6.57
2023-02-16T19:52:50.381Z,6.00
2023-02-16T19:55:56.665Z,6.57
2023-02-16T19:59:02.804Z,5.50
2023-02-16T20:02:06.379Z,5.90
2023-02-16T20:05:10.511Z,6.40
2023-02-16T20:08:15.226Z,5.67
2023-02-16T20:11:21.563Z,6.27
2023-02-16T20:14:24.763Z,6.57
2023-02-16T20:17:27.364Z,5.90
2023-02-16T20:20:30.396Z,5.87
2023-02-16T20:23:35.017Z,5.73
2023-02-16T20:26:46.690Z,5.10
2023-02-16T20:29:50.005Z,5.60
2023-02-16T20:32:56.351Z,5.27
2023-02-16T20:35:59.835Z,4.77
2023-02-16T20:39:02.789Z,5.47
2023-02-16T20:42:06.032Z,4.63
2023-02-16T20:45:10.076Z,4.80
2023-02-16T20:48:12.952Z,4.63
2023-02-16T20:51:17.010Z,4.87
2023-02-16T20:54:19.673Z,6.43
2023-02-16T20:57:27.130Z,5.67
2023-02-16T21:00:30.722Z,5.67
2023-02-16T21:03:34.139Z,5.60
2023-02-16T21:06:37.972Z,5.77
2023-02-16T21:09:42.798Z,5.63
2023-02-16T21:12:49.438Z,5.03
2023-02-16T21:15:57.661Z,5.10
2023-02-16T21:19:00.412Z,4.80
2023-02-16T21:22:02.938Z,5.13
2023-02-16T21:25:06.154Z,4.73
2023-02-16T21:28:09.119Z,5.83
2023-02-16T21:31:15.054Z,4.50
2023-02-16T21:34:17.655Z,4.90
2023-02-16T21:37:20.344Z,5.87
2023-02-16T21:40:41.742Z,5.10
2023-02-16T21:43:44.360Z,4.40
2023-02-16T21:46:48.222Z,4.03
2023-02-16T21:49:50.727Z,4.63
2023-02-16T21:52:53.526Z,4.53
2023-02-16T21:56:14.505Z,4.63
2023-02-16T21:59:18.789Z,4.77
2023-02-16T22:02:20.722Z,4.70
2023-02-16T22:05:22.670Z,4.90
2023-02-16T22:08:24.658Z,3.70
2023-02-16T22:11:26.724Z,4.10
2023-02-16T22:14:28.720Z,3.40
2023-02-16T22:17:32.353Z,3.87
2023-02-16T22:20:34.353Z,3.60
2023-02-16T22:23:37.841Z,3.73
2023-02-16T22:26:39.962Z,3.40
2023-02-16T22:29:41.905Z,3.87
2023-02-16T22:32:43.929Z,3.30
2023-02-16T22:35:46.016Z,3.17
2023-02-16T22:38:48.883Z,3.20
2023-02-16T22:41:51.394Z,3.60
2023-02-16T22:44:53.384Z,3.17
2023-02-16T22:47:55.333Z,3.63
2023-02-16T22:50:59.172Z,3.60
2023-02-16T22:54:02.160Z,3.20
2023-02-16T22:57:04.485Z,3.33
2023-02-16T23:00:10.135Z,3.50
2023-02-16T23:03:12.345Z,3.00
2023-02-16T23:06:17.685Z,3.40
2023-02-16T23:09:22.001Z,3.53
2023-02-16T23:12:24.438Z,3.07
2023-02-16T23:15:26.441Z,3.20
2023-02-16T23:18:28.502Z,3.37
2023-02-16T23:21:32.961Z,4.40
2023-02-16T23:24:34.989Z,3.73
2023-02-16T23:27:37.025Z,3.47
2023-02-16T23:30:43.731Z,3.00
2023-02-16T23:33:45.949Z,3.57
2023-02-16T23:36:47.952Z,3.97
2023-02-16T23:39:49.901Z,3.60
2023-02-16T23:42:51.813Z,4.53
2023-02-16T23:45:54.240Z,3.90
2023-02-16T23:48:56.227Z,5.20
2023-02-16T23:51:58.197Z,5.43
2023-02-16T23:55:00.142Z,5.13
2023-02-16T23:58:02.392Z,4.70
